Flight Track Log - Related Links

Times and Time Zones

All times are in EDT time to prevent confusion due to time zone crossing. See the AAY860 flight status page for this flight to view local times or setup timezone preferences in your user account.

Time Position Orientation Groundspeed Altitude Reporting Facility
EDT Latitude Longitude Course Direction KTS MPH feet Rate Location/Type
Wed 06:27:58 AM 27.9333 -82.7000 330° Northwest 163 188 800  Level Tampa TRACON
Wed 06:28:46 AM 27.9667 -82.6833 24° Northeast 169 194 2,200 1,737 Climbing Tampa TRACON
Wed 06:29:52 AM 28.0333 -82.6667 12° North 256 295 4,100 2,238 Climbing Tampa TRACON
Wed 06:30:52 AM 28.1000 -82.6833 348° North 267 307 6,900 2,323 Climbing Tampa TRACON
Wed 06:32:27 AM 28.1978 -82.7158 344° North 279 321 10,100 1,703 Climbing Jacksonville Center
Wed 06:33:00 AM 28.7050 -83.1875 330° Northwest  Level FlightAware Approximate
Wed 06:33:27 AM 28.2897 -82.7417 346° North 294 338 11,300  Level Jacksonville Center
Wed 06:34:27 AM 28.3836 -82.7722 344° North 325 374 13,400 2,000 Climbing Jacksonville Center
Wed 06:35:27 AM 28.4817 -82.8053 343° North 346 398 15,300 1,900 Climbing Jacksonville Center
Wed 06:36:27 AM 28.5714 -82.8714 327° Northwest 364 419 17,200 1,800 Climbing Jacksonville Center
Wed 06:37:27 AM 28.6653 -82.9375 328° Northwest 382 440 18,900 1,750 Climbing Jacksonville Center
Wed 06:38:27 AM 28.7656 -83.0158 326° Northwest 395 455 20,700 1,600 Climbing Jacksonville Center
Wed 06:39:27 AM 28.8636 -83.0894 327° Northwest 407 468 22,100 1,300 Climbing Jacksonville Center
Wed 06:40:27 AM 28.9636 -83.1631 327° Northwest 419 482 23,300 1,250 Climbing Jacksonville Center
Wed 06:41:27 AM 29.0678 -83.2394 327° Northwest 429 494 24,600 1,200 Climbing Jacksonville Center
Wed 06:42:27 AM 29.1511 -83.3206 320° Northwest 435 501 25,700 1,050 Climbing Jacksonville Center
Wed 06:43:27 AM 29.2486 -83.4161 319° Northwest 446 513 26,700 1,050 Climbing Jacksonville Center
Wed 06:44:27 AM 29.3486 -83.5097 321° Northwest 456 525 27,800 1,050 Climbing Jacksonville Center
Wed 06:45:27 AM 29.4503 -83.6033 321° Northwest 461 531 28,800 950 Climbing Jacksonville Center
Wed 06:46:27 AM 29.5542 -83.6994 321° Northwest 471 542 29,700 1,000 Climbing Jacksonville Center
Wed 06:47:27 AM 29.6600 -83.7911 323° Northwest 476 548 30,800 1,150 Climbing Jacksonville Center
Wed 06:48:27 AM 29.7914 -83.8211 349° North 466 536 32,000 1,100 Climbing Jacksonville Center
Wed 06:49:27 AM 29.9247 -83.8417 352° North 466 536 33,000 1,050 Climbing Jacksonville Center
Wed 06:50:27 AM 30.0542 -83.8622 352° North 472 543 34,100 1,000 Climbing Jacksonville Center
Wed 06:51:27 AM 30.1833 -83.8803 353° North 467 537 35,000 800 Climbing Jacksonville Center
Wed 06:52:27 AM 30.3147 -83.9008 352° North 467 537 35,700 500 Climbing Jacksonville Center
Wed 06:53:27 AM 30.4461 -83.9192 353° North 467 537 36,000 150 Climbing Jacksonville Center
Wed 06:54:27 AM 30.5817 -83.9397 353° North 467 537 36,000  Level Jacksonville Center
Wed 06:55:27 AM 30.7108 -83.9631 351° North 461 531 36,000  Level Jacksonville Center
Wed 06:56:27 AM 30.8403 -83.9814 353° North 466 536 36,000  Level Jacksonville Center
Wed 06:57:27 AM 30.9675 -84.0022 352° North 466 536 36,000  Level Jacksonville Center
Wed 06:59:29 AM 31.2144 -84.0436 352° North 472 543 36,000  Level Atlanta Center
Wed 07:00:29 AM 31.3417 -84.0631 353° North 472 543 36,000  Level Atlanta Center
Wed 07:01:29 AM 31.4836 -84.0875 352° North 467 537 36,000  Level Atlanta Center
Wed 07:02:29 AM 31.6131 -84.1072 353° North 467 537 36,000  Level Atlanta Center
Wed 07:03:29 AM 31.7403 -84.1292 352° North 467 537 36,000  Level Atlanta Center
Wed 07:04:29 AM 31.8697 -84.1489 353° North 467 537 36,000  Level Atlanta Center
Wed 07:05:29 AM 31.9992 -84.1564 357° North 467 537 36,000  Level Atlanta Center
Wed 07:06:29 AM 32.1264 -84.1639 357° North 461 531 36,000  Level Atlanta Center
Wed 07:07:29 AM 32.2558 -84.1739 356° North 461 531 36,000  Level Atlanta Center
Wed 07:08:29 AM 32.3872 -84.1814 357° North 461 531 36,000  Level Atlanta Center
Wed 07:09:29 AM 32.5167 -84.1917 356° North 461 531 36,000  Level Atlanta Center
Wed 07:10:29 AM 32.6461 -84.1992 357° North 461 531 36,000  Level Atlanta Center
Wed 07:11:29 AM 32.7756 -84.2092 356° North 461 531 36,000  Level Atlanta Center
Wed 07:12:29 AM 32.8903 -84.2194 356° North 461 531 36,000  Level Atlanta Center
Wed 07:13:29 AM 33.0239 -84.2294 356° North 461 531 36,000  Level Atlanta Center
Wed 07:14:29 AM 33.1575 -84.2372 357° North 466 536 36,000  Level Atlanta Center
Wed 07:15:29 AM 33.2889 -84.2475 356° North 466 536 36,000  Level Atlanta Center
Wed 07:20:38 AM 34.0208 -84.2980 356° North 467 537 36,000  Level FlightAware ADS-B (KDZJ)
Wed 07:21:18 AM 34.1081 -84.3045 357° North 468 539 36,000  Level FlightAware ADS-B (KDZJ)
Wed 07:21:58 AM 34.1964 -84.3109 357° North 465 535 36,000  Level FlightAware ADS-B (KDZJ)
Wed 07:22:38 AM 34.2834 -84.3173 357° North 470 541 36,000 -450 Level FlightAware ADS-B (KDZJ)
Wed 07:23:18 AM 34.3715 -84.3238 357° North 469 540 35,400 -900 Descending FlightAware ADS-B (KDZJ)
Wed 07:23:58 AM 34.4572 -84.3304 356° North 467 537 34,800 -975 Descending FlightAware ADS-B (KDZJ)
Wed 07:24:38 AM 34.5463 -84.3369 357° North 471 542 34,100 -600 Descending FlightAware ADS-B (KDZJ)
Wed 07:25:18 AM 34.6338 -84.3434 356° North 468 539 34,000 -77 Descending FlightAware ADS-B (KDZJ)
Wed 07:25:56 AM 34.7183 -84.3497 356° North 467 537 34,000  Level FlightAware ADS-B (KDZJ)
Wed 07:26:36 AM 34.8050 -84.3563 356° North 468 539 34,000  Level FlightAware ADS-B (KDZJ)
Wed 07:27:17 AM 34.8964 -84.3632 356° North 466 536 34,000  Level FlightAware ADS-B (KDZJ)
Wed 07:27:58 AM 34.9862 -84.3700 356° North 466 536 34,000  Level FlightAware ADS-B (KDZJ)
Wed 07:28:37 AM 35.0722 -84.3764 356° North 465 535 34,000  Level FlightAware ADS-B (KDZJ)
Wed 07:29:18 AM 35.1601 -84.3831 356° North 465 535 34,000  Level FlightAware ADS-B (KDZJ)
Wed 07:29:56 AM 35.2438 -84.3894 357° North 465 535 34,000  Level FlightAware ADS-B (KDZJ)
Wed 07:30:39 AM 35.3386 -84.3965 356° North 466 536 34,000  Level FlightAware ADS-B (KDZJ)
Wed 07:31:18 AM 35.4237 -84.4030 356° North 468 539 34,000 -486 Level FlightAware ADS-B (KDZJ)
Wed 07:32:30 AM 35.5498 -84.4126 357° North 480 552 33,100 -662 Descending FlightAware ADS-B (KMDQ)
Wed 07:37:57 AM 36.2619 -84.4677 356° North 461 531 29,600 -876 Descending FlightAware ADS-B
Wed 07:39:14 AM 36.4203 -84.4794 356° North 458 527 27,200 -1,913 Descending Indianapolis Center
Wed 07:40:15 AM 36.5436 -84.4892 356° North 440 506 25,200 -1,561 Descending Indianapolis Center
Wed 07:41:17 AM 36.6600 -84.4981 356° North 424 488 24,000 -1,171 Descending Indianapolis Center
Wed 07:42:18 AM 36.7708 -84.5072 356° North 418 481 22,800 -1,756 Descending Indianapolis Center
Wed 07:43:20 AM 36.8878 -84.5169 356° North 418 481 20,400 -2,146 Descending Indianapolis Center
Wed 07:44:21 AM 37.0206 -84.5264 357° North 404 465 18,400 -1,770 Descending Indianapolis Center
Wed 07:45:22 AM 37.1297 -84.5358 356° North 389 448 16,800 -1,561 Descending Indianapolis Center
Wed 07:46:24 AM 37.2344 -84.5436 357° North 379 436 15,200 -1,561 Descending Indianapolis Center
Wed 07:47:25 AM 37.3358 -84.5511 357° North 368 423 13,600 -1,146 Descending Indianapolis Center
Wed 07:52:20 AM 37.7751 -84.5875 357° North 288 331 8,400 -992 Descending FlightAware ADS-B
Wed 07:53:34 AM 37.8586 -84.5714 357° North 289 333 7,500 -1,235 Descending Indianapolis Center
Wed 07:54:36 AM 37.9511 -84.5497 10° North 287 330 5,600 -1,561 Descending Indianapolis Center
Wed 07:55:37 AM 38.0294 -84.5364 North 287 330 4,300 -927 Descending Indianapolis Center
Wed 07:56:39 AM 38.0906 -84.5036 23° Northeast 269 310 3,700 -537 Descending Indianapolis Center
Wed 07:57:40 AM 38.1247 -84.4461 53° Northeast 229 264 3,200 -293 Descending Indianapolis Center
Wed 07:58:42 AM 38.1594 -84.4058 42° Northeast 213 245 3,100  Descending Indianapolis Center
Wed 07:59:43 AM 38.1564 -84.4578 266° West 185 213 3,200 49 Climbing Indianapolis Center
Wed 08:00:45 AM 38.1328 -84.4994 234° Southwest 160 184 3,200 -293 Level Indianapolis Center
Wed 08:01:46 AM 38.1017 -84.5336 221° Southwest 151 174 2,600 -732 Descending Indianapolis Center
Wed 08:02:48 AM 38.0678 -84.5706 221° Southwest 145 167 1,700 -871 Descending Indianapolis Center

Login

Don't have an account? Register now (free) for customized features, flight alerts, and more!